Time;durP1;ratioP1;P1;durP2;ratioP2;P2;SDS_P1;SDS_P2;PMS_P1;PMS_P2;Temp;Humidity;BMP_temperature;BMP_pressure;BME280_temperature;BME280_humidity;BME280_pressure;Samples;Min_cycle;Max_cycle;Signal;HPM_P1;HPM_P2
2021/05/02 00:01:23;;;;;;;18.33;9.32;;;;;;;;;;5065468;28;20021;-71
2021/05/02 00:03:49;;;;;;;17.23;9.30;;;;;;;;;;5066061;28;20020;-70
2021/05/02 00:06:16;;;;;;;21.20;9.82;;;;;;;;;;5066759;28;20025;-69
2021/05/02 00:08:43;;;;;;;17.80;9.38;;;;;;;;;;5059760;28;20085;-71
2021/05/02 00:11:10;;;;;;;14.95;8.52;;;;;;;;;;5056308;28;20027;-69
2021/05/02 00:13:36;;;;;;;16.63;8.25;;;;;;;;;;5069139;28;20029;-70
2021/05/02 00:16:03;;;;;;;27.30;10.43;;;;;;;;;;5066840;28;20021;-70
2021/05/02 00:18:29;;;;;;;18.60;9.45;;;;;;;;;;5052961;28;20108;-70
2021/05/02 00:20:56;;;;;;;20.88;9.05;;;;;;;;;;5055642;28;20020;-70
2021/05/02 00:23:22;;;;;;;23.00;9.05;;;;;;;;;;5054995;28;20021;-70
2021/05/02 00:25:48;;;;;;;20.85;9.82;;;;;;;;;;5055229;28;20024;-70
2021/05/02 00:28:15;;;;;;;21.63;9.38;;;;;;;;;;5067493;28;20685;-71
2021/05/02 00:30:41;;;;;;;20.30;9.20;;;;;;;;;;5062306;28;20037;-70
2021/05/02 00:33:08;;;;;;;20.73;9.77;;;;;;;;;;5064026;28;20503;-70
2021/05/02 00:35:34;;;;;;;17.55;8.85;;;;;;;;;;5058217;28;20032;-70
2021/05/02 00:38:00;;;;;;;29.10;10.65;;;;;;;;;;5068347;28;20037;-70
2021/05/02 00:40:31;;;;;;;33.25;10.88;;;;;;;;;;5070575;28;20379;-70
2021/05/02 00:42:58;;;;;;;22.67;10.75;;;;;;;;;;5066487;28;20025;-70
2021/05/02 00:45:24;;;;;;;18.00;8.65;;;;;;;;;;5054851;28;20095;-69
2021/05/02 00:47:54;;;;;;;19.88;8.35;;;;;;;;;;5063519;28;20056;-69
2021/05/02 00:50:23;;;;;;;19.08;8.30;;;;;;;;;;5053732;28;20051;-70
2021/05/02 00:52:50;;;;;;;16.35;7.43;;;;;;;;;;5082379;28;20028;-71
2021/05/02 00:55:20;;;;;;;18.75;8.20;;;;;;;;;;5052362;28;20021;-70
2021/05/02 00:57:46;;;;;;;18.90;8.30;;;;;;;;;;5056365;28;20036;-70
2021/05/02 01:00:13;;;;;;;19.02;8.68;;;;;;;;;;5059742;28;20032;-70
2021/05/02 01:02:42;;;;;;;18.40;8.90;;;;;;;;;;5062628;28;20486;-70
2021/05/02 01:05:09;;;;;;;17.70;7.97;;;;;;;;;;5067578;28;20502;-69
2021/05/02 01:07:36;;;;;;;20.17;8.35;;;;;;;;;;5067797;28;20045;-69
2021/05/02 01:10:05;;;;;;;20.02;8.65;;;;;;;;;;5070427;28;20016;-70
2021/05/02 01:12:32;;;;;;;21.95;9.23;;;;;;;;;;5068237;28;20507;-70
2021/05/02 01:14:59;;;;;;;19.55;9.65;;;;;;;;;;5071621;28;20107;-69
2021/05/02 01:17:25;;;;;;;25.95;10.82;;;;;;;;;;5063010;28;20025;-70
2021/05/02 01:19:52;;;;;;;21.75;9.63;;;;;;;;;;5057757;28;20036;-69
2021/05/02 01:22:19;;;;;;;17.58;9.32;;;;;;;;;;5057436;28;20580;-70
2021/05/02 01:24:50;;;;;;;21.67;9.18;;;;;;;;;;5052233;28;20024;-70
2021/05/02 01:27:27;;;;;;;16.77;8.10;;;;;;;;;;5055893;28;20029;-70
2021/05/02 01:29:53;;;;;;;18.17;8.00;;;;;;;;;;5068110;28;20036;-70
2021/05/02 01:32:19;;;;;;;13.90;7.60;;;;;;;;;;5058469;28;20082;-70
2021/05/02 01:34:45;;;;;;;16.45;7.63;;;;;;;;;;5061118;28;20051;-70
2021/05/02 01:37:12;;;;;;;23.08;8.40;;;;;;;;;;5064868;28;20017;-70
2021/05/02 01:39:38;;;;;;;21.33;8.02;;;;;;;;;;5062971;28;20020;-70
2021/05/02 01:42:05;;;;;;;16.27;8.32;;;;;;;;;;5066481;28;20017;-70
2021/05/02 01:44:31;;;;;;;18.90;8.05;;;;;;;;;;5062526;28;20642;-70
2021/05/02 01:46:59;;;;;;;17.77;7.03;;;;;;;;;;5055836;28;20024;-70
2021/05/02 01:49:25;;;;;;;16.65;7.43;;;;;;;;;;5059284;28;20163;-70
2021/05/02 01:51:51;;;;;;;15.00;7.22;;;;;;;;;;5062886;28;20025;-70
2021/05/02 01:54:17;;;;;;;16.25;7.47;;;;;;;;;;5070914;28;20044;-70
2021/05/02 01:56:45;;;;;;;18.92;7.95;;;;;;;;;;5062774;28;21723;-71
2021/05/02 01:59:13;;;;;;;15.68;6.80;;;;;;;;;;5067635;28;20031;-71
2021/05/02 02:01:39;;;;;;;16.88;6.47;;;;;;;;;;5060123;28;20025;-71
2021/05/02 02:04:07;;;;;;;16.77;8.68;;;;;;;;;;5056698;28;20025;-69
2021/05/02 02:06:34;;;;;;;16.50;6.20;;;;;;;;;;5053786;28;20675;-70
2021/05/02 02:09:03;;;;;;;21.40;8.05;;;;;;;;;;5062945;28;20060;-70
2021/05/02 02:11:30;;;;;;;16.50;7.00;;;;;;;;;;5070052;28;20020;-70
2021/05/02 02:13:57;;;;;;;22.02;7.07;;;;;;;;;;5063689;28;20429;-70
2021/05/02 02:16:23;;;;;;;13.93;6.20;;;;;;;;;;5050611;28;20086;-70
2021/05/02 02:18:49;;;;;;;12.82;6.05;;;;;;;;;;5062103;28;20103;-70
2021/05/02 02:21:17;;;;;;;40.50;7.28;;;;;;;;;;5055413;28;20033;-70
2021/05/02 02:23:46;;;;;;;14.75;6.85;;;;;;;;;;5057739;28;20063;-71
2021/05/02 02:26:17;;;;;;;12.55;5.75;;;;;;;;;;5055078;28;20154;-70
2021/05/02 02:28:43;;;;;;;12.68;5.90;;;;;;;;;;5050554;28;20029;-71
2021/05/02 02:31:12;;;;;;;15.18;5.50;;;;;;;;;;5052506;28;20029;-70
2021/05/02 02:33:40;;;;;;;16.00;6.00;;;;;;;;;;5061575;28;20480;-70
2021/05/02 02:36:06;;;;;;;19.27;6.47;;;;;;;;;;5069598;28;20044;-70
2021/05/02 02:38:34;;;;;;;13.98;6.20;;;;;;;;;;5066089;28;20054;-70
2021/05/02 02:41:01;;;;;;;10.30;5.95;;;;;;;;;;5069837;28;20104;-70
2021/05/02 02:43:33;;;;;;;15.75;5.72;;;;;;;;;;5066929;28;20016;-70
2021/05/02 02:46:05;;;;;;;14.55;6.15;;;;;;;;;;5067532;28;20040;-70
2021/05/02 02:48:32;;;;;;;12.40;5.43;;;;;;;;;;5057504;28;20033;-70
2021/05/02 02:50:59;;;;;;;16.10;5.53;;;;;;;;;;5062792;28;20614;-70
2021/05/02 02:53:29;;;;;;;12.25;5.10;;;;;;;;;;5060272;28;20029;-70
2021/05/02 02:56:02;;;;;;;14.65;6.13;;;;;;;;;;5069107;28;20032;-70
2021/05/02 02:58:29;;;;;;;15.60;4.90;;;;;;;;;;5057112;28;20036;-71
2021/05/02 03:00:56;;;;;;;18.42;4.93;;;;;;;;;;5053141;28;20055;-70
2021/05/02 03:03:24;;;;;;;13.55;5.65;;;;;;;;;;5062905;28;20024;-69
2021/05/02 03:05:52;;;;;;;9.90;4.70;;;;;;;;;;5056029;28;20554;-70
2021/05/02 03:08:23;;;;;;;14.40;4.90;;;;;;;;;;5059917;28;20045;-70
2021/05/02 03:10:50;;;;;;;14.85;4.55;;;;;;;;;;5067875;28;20747;-70
2021/05/02 03:13:16;;;;;;;12.23;4.28;;;;;;;;;;5058034;28;20021;-70
2021/05/02 03:15:42;;;;;;;13.90;4.60;;;;;;;;;;5065633;28;20449;-70
2021/05/02 03:18:17;;;;;;;12.55;4.85;;;;;;;;;;5063800;28;20031;-70
2021/05/02 03:20:45;;;;;;;15.63;4.40;;;;;;;;;;5068680;28;20028;-70
2021/05/02 03:23:12;;;;;;;12.48;4.00;;;;;;;;;;5052002;28;20044;-69
2021/05/02 03:25:42;;;;;;;17.27;3.30;;;;;;;;;;5054930;28;20044;-70
2021/05/02 03:28:11;;;;;;;13.15;3.67;;;;;;;;;;5056630;28;20487;-70
2021/05/02 03:30:40;;;;;;;13.13;3.15;;;;;;;;;;5061230;28;20059;-70
2021/05/02 03:33:09;;;;;;;11.52;3.72;;;;;;;;;;5062946;28;20064;-70
2021/05/02 03:35:36;;;;;;;27.70;3.40;;;;;;;;;;5055949;28;20586;-70
2021/05/02 03:38:08;;;;;;;13.50;3.55;;;;;;;;;;5060399;28;20100;-70
2021/05/02 03:40:34;;;;;;;;;;;;;;;;;;5066286;28;20025;-71
2021/05/02 03:43:00;;;;;;;9.10;2.42;;;;;;;;;;5059288;28;19958;-70
2021/05/02 03:45:26;;;;;;;14.13;3.10;;;;;;;;;;5067634;28;20022;-70
2021/05/02 03:47:52;;;;;;;13.77;3.22;;;;;;;;;;5067304;28;20029;-70
2021/05/02 03:50:18;;;;;;;10.43;3.22;;;;;;;;;;5053141;28;20025;-71
2021/05/02 03:52:45;;;;;;;20.95;3.22;;;;;;;;;;5062513;28;20025;-70
2021/05/02 03:55:11;;;;;;;6.13;2.20;;;;;;;;;;5054342;28;20029;-70
2021/05/02 03:57:37;;;;;;;12.50;3.05;;;;;;;;;;5065997;28;20470;-70
2021/05/02 04:00:04;;;;;;;9.80;3.03;;;;;;;;;;5061323;28;20027;-69
2021/05/02 04:02:30;;;;;;;10.85;2.47;;;;;;;;;;5071244;28;20150;-70
2021/05/02 04:04:56;;;;;;;9.93;2.90;;;;;;;;;;5070062;28;20028;-70
2021/05/02 04:07:22;;;;;;;7.32;2.45;;;;;;;;;;5069179;28;20048;-70
2021/05/02 04:09:49;;;;;;;12.25;3.15;;;;;;;;;;5061018;28;20021;-69
2021/05/02 04:12:16;;;;;;;9.38;2.75;;;;;;;;;;5057514;28;20033;-70
2021/05/02 04:14:42;;;;;;;9.57;2.42;;;;;;;;;;5065698;28;20032;-70
2021/05/02 04:17:12;;;;;;;9.98;2.45;;;;;;;;;;5058576;28;20029;-70
2021/05/02 04:19:39;;;;;;;9.60;3.38;;;;;;;;;;5060977;28;20504;-70
2021/05/02 04:22:06;;;;;;;14.25;2.92;;;;;;;;;;5071567;28;20012;-70
2021/05/02 04:24:32;;;;;;;6.15;2.40;;;;;;;;;;5061519;28;20178;-69
2021/05/02 04:26:59;;;;;;;7.38;2.42;;;;;;;;;;5068191;28;20021;-70
2021/05/02 04:29:26;;;;;;;9.88;2.63;;;;;;;;;;5053242;28;20047;-70
2021/05/02 04:31:52;;;;;;;13.88;2.33;;;;;;;;;;5058515;28;20029;-69
2021/05/02 04:34:21;;;;;;;14.77;2.97;;;;;;;;;;5069626;28;20041;-69
2021/05/02 04:36:48;;;;;;;5.47;1.90;;;;;;;;;;5054218;28;20025;-69
2021/05/02 04:39:14;;;;;;;9.50;2.40;;;;;;;;;;5054157;28;20025;-70
2021/05/02 04:41:40;;;;;;;7.65;2.30;;;;;;;;;;5054601;28;20078;-69
2021/05/02 04:44:06;;;;;;;11.98;2.55;;;;;;;;;;5068897;28;20107;-69
2021/05/02 04:46:32;;;;;;;5.32;2.30;;;;;;;;;;5065292;28;20020;-70
2021/05/02 04:48:58;;;;;;;10.15;2.67;;;;;;;;;;5058870;28;20063;-70
2021/05/02 04:51:24;;;;;;;11.43;2.67;;;;;;;;;;5061445;28;20532;-69
2021/05/02 04:53:50;;;;;;;15.70;2.10;;;;;;;;;;5064508;28;20499;-70
2021/05/02 04:56:16;;;;;;;13.68;3.00;;;;;;;;;;5065571;28;20028;-70
2021/05/02 04:58:43;;;;;;;9.20;2.25;;;;;;;;;;5060135;28;20037;-70
2021/05/02 05:01:09;;;;;;;7.38;2.22;;;;;;;;;;5071664;28;20021;-70
2021/05/02 05:03:36;;;;;;;14.23;2.60;;;;;;;;;;5067845;28;20086;-69
2021/05/02 05:06:02;;;;;;;8.65;2.25;;;;;;;;;;5069167;28;20048;-70
2021/05/02 05:08:28;;;;;;;11.45;2.40;;;;;;;;;;5052473;28;20049;-71
2021/05/02 05:10:54;;;;;;;7.93;1.88;;;;;;;;;;5067491;28;20517;-70
2021/05/02 05:13:21;;;;;;;11.57;2.47;;;;;;;;;;5066625;28;20039;-70
2021/05/02 05:15:47;;;;;;;8.80;1.88;;;;;;;;;;5051943;28;20410;-69
2021/05/02 05:18:13;;;;;;;6.72;2.40;;;;;;;;;;5059375;28;20547;-69
2021/05/02 05:20:39;;;;;;;11.15;1.90;;;;;;;;;;5048851;28;20086;-69
2021/05/02 05:23:05;;;;;;;10.88;2.20;;;;;;;;;;5058363;28;20054;-70
2021/05/02 05:25:31;;;;;;;11.52;2.53;;;;;;;;;;5070545;28;20186;-70
2021/05/02 05:27:57;;;;;;;8.95;1.85;;;;;;;;;;5061346;28;20110;-70
2021/05/02 05:30:23;;;;;;;8.93;2.20;;;;;;;;;;5057650;28;20033;-69
2021/05/02 05:32:49;;;;;;;13.20;2.40;;;;;;;;;;5056338;28;20029;-69
2021/05/02 05:35:15;;;;;;;7.20;1.75;;;;;;;;;;5059312;28;20526;-69
2021/05/02 05:37:41;;;;;;;8.90;2.40;;;;;;;;;;5059075;28;20024;-69
2021/05/02 05:40:08;;;;;;;9.13;2.15;;;;;;;;;;5059672;28;20075;-70
2021/05/02 05:42:34;;;;;;;10.00;1.90;;;;;;;;;;5058097;28;21724;-69
2021/05/02 05:45:00;;;;;;;7.63;1.65;;;;;;;;;;5052283;28;20048;-70
2021/05/02 05:47:27;;;;;;;8.45;1.90;;;;;;;;;;5061455;28;20086;-69
2021/05/02 05:49:53;;;;;;;9.43;2.95;;;;;;;;;;5064079;28;20170;-69
2021/05/02 05:52:19;;;;;;;9.75;2.05;;;;;;;;;;5060884;28;20056;-69
2021/05/02 05:54:45;;;;;;;7.47;2.15;;;;;;;;;;5065694;28;20540;-69
2021/05/02 05:57:11;;;;;;;8.05;1.92;;;;;;;;;;5066690;28;20486;-69
2021/05/02 05:59:37;;;;;;;6.68;2.08;;;;;;;;;;5062005;28;20031;-69
2021/05/02 06:02:04;;;;;;;3.97;1.80;;;;;;;;;;5068428;28;20479;-70
2021/05/02 06:04:30;;;;;;;8.73;2.38;;;;;;;;;;5059417;28;20017;-69
2021/05/02 06:06:56;;;;;;;11.98;2.08;;;;;;;;;;5067850;28;20078;-69
2021/05/02 06:09:22;;;;;;;7.25;2.05;;;;;;;;;;5061711;28;20474;-69
2021/05/02 06:11:48;;;;;;;8.13;2.28;;;;;;;;;;5064421;28;20648;-70
2021/05/02 06:14:14;;;;;;;7.32;2.10;;;;;;;;;;5060632;28;20021;-70
2021/05/02 06:16:40;;;;;;;7.13;1.80;;;;;;;;;;5068526;28;20401;-69
2021/05/02 06:19:07;;;;;;;8.75;1.90;;;;;;;;;;5063930;28;20032;-69
2021/05/02 06:21:33;;;;;;;7.25;2.05;;;;;;;;;;5062568;28;20017;-70
2021/05/02 06:24:00;;;;;;;7.05;2.13;;;;;;;;;;5067755;28;20096;-70
2021/05/02 06:26:27;;;;;;;9.32;2.28;;;;;;;;;;5064873;28;20017;-67
2021/05/02 06:28:53;;;;;;;6.68;2.13;;;;;;;;;;5060809;28;20028;-67
2021/05/02 06:31:19;;;;;;;8.77;2.00;;;;;;;;;;5055242;28;20039;-69
2021/05/02 06:33:46;;;;;;;7.50;1.90;;;;;;;;;;5061932;28;20684;-69
2021/05/02 06:36:12;;;;;;;11.23;2.28;;;;;;;;;;5061945;28;20110;-68
2021/05/02 06:38:38;;;;;;;8.85;1.90;;;;;;;;;;5056383;28;20033;-68
2021/05/02 06:41:04;;;;;;;6.85;2.28;;;;;;;;;;5069138;28;20055;-69
2021/05/02 06:43:31;;;;;;;10.25;2.42;;;;;;;;;;5069558;28;20021;-69
2021/05/02 06:45:57;;;;;;;5.03;1.90;;;;;;;;;;5063084;28;20021;-68
2021/05/02 06:48:23;;;;;;;7.97;1.77;;;;;;;;;;5087305;28;20029;-68
2021/05/02 06:50:49;;;;;;;7.45;2.22;;;;;;;;;;5055055;28;20036;-68
2021/05/02 06:53:15;;;;;;;5.63;1.63;;;;;;;;;;5066523;28;20029;-69
2021/05/02 06:55:41;;;;;;;6.30;1.88;;;;;;;;;;5068324;28;20560;-68
2021/05/02 06:58:08;;;;;;;9.55;2.00;;;;;;;;;;5068821;28;20450;-68
2021/05/02 07:00:37;;;;;;;6.85;2.03;;;;;;;;;;5059271;28;20069;-68
2021/05/02 07:03:03;;;;;;;5.82;2.58;;;;;;;;;;5061280;28;20024;-69
2021/05/02 07:05:29;;;;;;;6.68;2.03;;;;;;;;;;5061803;28;20029;-70
2021/05/02 07:07:55;;;;;;;5.40;2.17;;;;;;;;;;5062001;28;20052;-69
2021/05/02 07:10:21;;;;;;;5.20;1.70;;;;;;;;;;5060112;28;20033;-70
2021/05/02 07:12:47;;;;;;;10.23;2.40;;;;;;;;;;5058968;28;20044;-70
2021/05/02 07:15:13;;;;;;;5.47;1.73;;;;;;;;;;5060862;28;20033;-69
2021/05/02 07:17:40;;;;;;;8.00;2.08;;;;;;;;;;5058663;28;20040;-69
2021/05/02 07:20:09;;;;;;;8.48;2.10;;;;;;;;;;5062416;28;20017;-69
2021/05/02 07:22:35;;;;;;;5.88;1.90;;;;;;;;;;5057871;28;20055;-70
2021/05/02 07:25:01;;;;;;;6.28;1.80;;;;;;;;;;5068679;28;20048;-71
2021/05/02 07:27:27;;;;;;;5.13;1.60;;;;;;;;;;5065278;28;20029;-69
2021/05/02 07:29:53;;;;;;;6.05;1.60;;;;;;;;;;5058033;28;20033;-69
2021/05/02 07:32:19;;;;;;;6.65;1.90;;;;;;;;;;5065120;28;20031;-69
2021/05/02 07:34:45;;;;;;;7.63;2.67;;;;;;;;;;5071735;28;20021;-70
2021/05/02 07:37:11;;;;;;;6.03;2.03;;;;;;;;;;5057597;28;20039;-70
2021/05/02 07:39:39;;;;;;;10.40;1.90;;;;;;;;;;5068574;28;20501;-69
2021/05/02 07:42:05;;;;;;;5.70;1.50;;;;;;;;;;5058476;28;20025;-69
2021/05/02 07:44:31;;;;;;;6.93;1.80;;;;;;;;;;5059724;28;20021;-69
2021/05/02 07:46:57;;;;;;;7.60;1.70;;;;;;;;;;5056164;28;20025;-70
2021/05/02 07:49:23;;;;;;;6.63;1.48;;;;;;;;;;5063397;28;20086;-70
2021/05/02 07:51:49;;;;;;;4.97;1.50;;;;;;;;;;5070226;28;20024;-70
2021/05/02 07:54:15;;;;;;;8.68;1.67;;;;;;;;;;5071707;28;20025;-72
2021/05/02 07:56:41;;;;;;;4.57;1.60;;;;;;;;;;5071584;28;20024;-71
2021/05/02 07:59:08;;;;;;;5.30;1.90;;;;;;;;;;5067057;28;20116;-71
2021/05/02 08:01:34;;;;;;;6.93;1.90;;;;;;;;;;5058123;28;20028;-70
2021/05/02 08:04:00;;;;;;;6.07;1.80;;;;;;;;;;5062053;28;20222;-70
2021/05/02 08:06:26;;;;;;;7.03;1.75;;;;;;;;;;5061484;28;20041;-70
2021/05/02 08:08:53;;;;;;;5.97;1.80;;;;;;;;;;5059557;28;20044;-71
2021/05/02 08:11:19;;;;;;;6.03;1.77;;;;;;;;;;5064088;28;20044;-71
2021/05/02 08:13:45;;;;;;;4.43;1.70;;;;;;;;;;5067689;28;20033;-71
2021/05/02 08:16:11;;;;;;;4.95;1.90;;;;;;;;;;5061773;28;20037;-70
2021/05/02 08:18:37;;;;;;;8.80;2.10;;;;;;;;;;5054695;28;20040;-71
2021/05/02 08:21:07;;;;;;;6.07;1.90;;;;;;;;;;5054092;28;20055;-69
2021/05/02 08:23:33;;;;;;;5.85;1.80;;;;;;;;;;5057465;28;20017;-71
2021/05/02 08:25:59;;;;;;;5.15;1.60;;;;;;;;;;5056256;28;20028;-71
2021/05/02 08:28:25;;;;;;;5.35;1.85;;;;;;;;;;5064654;28;20098;-71
2021/05/02 08:30:51;;;;;;;6.88;1.70;;;;;;;;;;5058901;28;20143;-69
2021/05/02 08:33:17;;;;;;;5.90;1.70;;;;;;;;;;5064757;28;20095;-69
2021/05/02 08:35:47;;;;;;;8.77;2.63;;;;;;;;;;5060335;28;20051;-71
2021/05/02 08:38:13;;;;;;;6.00;1.88;;;;;;;;;;5071094;28;20025;-69
2021/05/02 08:40:39;;;;;;;8.52;1.65;;;;;;;;;;5066770;28;20047;-71
2021/05/02 08:43:08;;;;;;;6.90;2.03;;;;;;;;;;5062517;28;20017;-70
2021/05/02 08:45:35;;;;;;;7.95;1.60;;;;;;;;;;5065939;28;20078;-70
2021/05/02 08:48:01;;;;;;;4.53;2.10;;;;;;;;;;5056605;28;20116;-70
2021/05/02 08:50:27;;;;;;;11.23;2.10;;;;;;;;;;5056159;28;20482;-71
2021/05/02 08:52:53;;;;;;;6.43;2.25;;;;;;;;;;5071121;28;20483;-71
2021/05/02 08:55:19;;;;;;;5.75;2.13;;;;;;;;;;5068691;28;20040;-71
2021/05/02 08:57:45;;;;;;;6.78;1.58;;;;;;;;;;5053428;28;20040;-71
2021/05/02 09:00:12;;;;;;;5.80;2.30;;;;;;;;;;5050604;28;20028;-71
2021/05/02 09:02:38;;;;;;;5.50;1.58;;;;;;;;;;5051859;28;20155;-71
2021/05/02 09:05:05;;;;;;;10.65;2.20;;;;;;;;;;5063844;28;20505;-71
2021/05/02 09:07:41;;;;;;;3.90;1.73;;;;;;;;;;5059953;28;20147;-71
2021/05/02 09:10:08;;;;;;;6.57;1.88;;;;;;;;;;5071556;28;20091;-71
2021/05/02 09:12:34;;;;;;;4.85;1.70;;;;;;;;;;5070539;28;20503;-71
2021/05/02 09:15:04;;;;;;;5.20;1.70;;;;;;;;;;5071705;28;20033;-71
2021/05/02 09:17:37;;;;;;;4.28;1.92;;;;;;;;;;5053510;28;20025;-71
2021/05/02 09:20:04;;;;;;;7.65;2.05;;;;;;;;;;5050036;28;20016;-70
2021/05/02 09:22:30;;;;;;;4.65;1.70;;;;;;;;;;5065879;28;20029;-70
2021/05/02 09:25:00;;;;;;;9.05;2.05;;;;;;;;;;5052366;28;20079;-71
2021/05/02 09:27:26;;;;;;;3.45;1.58;;;;;;;;;;5067721;28;20024;-71
2021/05/02 09:29:52;;;;;;;5.65;1.38;;;;;;;;;;5067778;28;20082;-71
2021/05/02 09:32:23;;;;;;;2.95;1.40;;;;;;;;;;5069745;28;20020;-72
2021/05/02 09:34:53;;;;;;;8.73;2.17;;;;;;;;;;5068395;28;20033;-71
2021/05/02 09:37:21;;;;;;;4.45;1.98;;;;;;;;;;5061335;28;20033;-72
2021/05/02 09:39:50;;;;;;;4.85;2.13;;;;;;;;;;5062807;28;20031;-70
2021/05/02 09:42:32;;;;;;;3.97;1.70;;;;;;;;;;5068398;28;20036;-72
2021/05/02 09:44:59;;;;;;;8.25;1.67;;;;;;;;;;5067096;28;20494;-72
2021/05/02 09:47:25;;;;;;;7.50;1.90;;;;;;;;;;5070601;28;20032;-72
2021/05/02 09:50:11;;;;;;;4.80;1.70;;;;;;;;;;5069511;28;20028;-72
2021/05/02 09:52:41;;;;;;;5.72;1.83;;;;;;;;;;5065066;28;20025;-71
2021/05/02 09:55:25;;;;;;;5.68;1.85;;;;;;;;;;5066295;28;20116;-71
2021/05/02 09:58:12;;;;;;;7.88;1.65;;;;;;;;;;5056809;28;20025;-72
2021/05/02 10:00:43;;;;;;;5.43;1.60;;;;;;;;;;5055254;28;20025;-71
2021/05/02 10:03:13;;;;;;;7.85;2.40;;;;;;;;;;5069008;28;20166;-71
2021/05/02 10:05:56;;;;;;;4.55;2.40;;;;;;;;;;5069384;28;20028;-71
2021/05/02 10:08:24;;;;;;;5.07;1.70;;;;;;;;;;5053572;28;20906;-71
2021/05/02 10:10:51;;;;;;;6.43;2.10;;;;;;;;;;5062143;28;20036;-70
2021/05/02 10:13:17;;;;;;;8.93;2.78;;;;;;;;;;5060408;28;20444;-70
2021/05/02 10:15:43;;;;;;;7.82;2.58;;;;;;;;;;5064258;28;20029;-71
2021/05/02 10:18:10;;;;;;;4.50;2.17;;;;;;;;;;5062990;28;20025;-72
2021/05/02 10:20:36;;;;;;;5.13;1.80;;;;;;;;;;5057298;28;20063;-71
2021/05/02 10:23:03;;;;;;;4.93;1.58;;;;;;;;;;5059147;28;20047;-71
2021/05/02 10:25:29;;;;;;;10.27;2.78;;;;;;;;;;5056996;28;20407;-72
2021/05/02 10:27:55;;;;;;;4.22;1.67;;;;;;;;;;5059237;28;20045;-71
2021/05/02 10:30:22;;;;;;;6.20;2.10;;;;;;;;;;5052316;28;20112;-71
2021/05/02 10:32:51;;;;;;;5.32;1.67;;;;;;;;;;5059293;28;20040;-71
2021/05/02 10:35:17;;;;;;;4.97;1.85;;;;;;;;;;5059625;28;20399;-72
2021/05/02 10:37:54;;;;;;;5.15;1.95;;;;;;;;;;5063882;28;20031;-70
2021/05/02 10:40:20;;;;;;;5.47;1.58;;;;;;;;;;5066451;28;20116;-70
2021/05/02 10:42:50;;;;;;;6.45;2.08;;;;;;;;;;5068472;28;20028;-72
2021/05/02 10:45:28;;;;;;;6.85;1.70;;;;;;;;;;5064192;28;20505;-70
2021/05/02 10:47:54;;;;;;;4.60;1.50;;;;;;;;;;5060361;28;20585;-70
2021/05/02 10:50:47;;;;;;;4.20;1.40;;;;;;;;;;5054461;28;20029;-73
2021/05/02 10:53:14;;;;;;;7.22;1.25;;;;;;;;;;5057126;28;20517;-72
2021/05/02 10:55:46;;;;;;;5.75;1.77;;;;;;;;;;5060455;28;20112;-69
2021/05/02 10:58:18;;;;;;;2.55;1.30;;;;;;;;;;5064427;28;20085;-70
2021/05/02 11:00:49;;;;;;;6.93;1.63;;;;;;;;;;5053049;28;20033;-71
2021/05/02 11:03:33;;;;;;;3.70;1.35;;;;;;;;;;5060607;28;20051;-70
2021/05/02 11:05:59;;;;;;;7.40;1.40;;;;;;;;;;5062163;28;20036;-71
2021/05/02 11:08:44;;;;;;;5.00;1.20;;;;;;;;;;5057668;28;20052;-71
2021/05/02 11:11:39;;;;;;;5.90;1.20;;;;;;;;;;5054122;28;20037;-72
2021/05/02 11:14:08;;;;;;;7.82;1.35;;;;;;;;;;5057338;28;20033;-71
2021/05/02 11:16:34;;;;;;;6.80;1.20;;;;;;;;;;5059839;28;20202;-70
2021/05/02 11:19:01;;;;;;;5.32;1.60;;;;;;;;;;5057708;28;20031;-71
2021/05/02 11:21:27;;;;;;;3.58;1.23;;;;;;;;;;5056195;28;20032;-71
2021/05/02 11:23:54;;;;;;;3.38;1.17;;;;;;;;;;5061430;28;20032;-70
2021/05/02 11:26:39;;;;;;;4.70;1.17;;;;;;;;;;5060651;28;20021;-70
2021/05/02 11:29:16;;;;;;;4.97;1.30;;;;;;;;;;5058324;28;20270;-70
2021/05/02 11:31:43;;;;;;;7.20;1.33;;;;;;;;;;5054662;28;20033;-70
2021/05/02 11:34:09;;;;;;;7.68;1.95;;;;;;;;;;5061598;28;20028;-70
2021/05/02 11:36:38;;;;;;;4.82;1.48;;;;;;;;;;5053974;28;20033;-70
2021/05/02 11:39:04;;;;;;;6.15;1.70;;;;;;;;;;5063305;28;20031;-70
2021/05/02 11:41:50;;;;;;;4.57;1.40;;;;;;;;;;5063259;28;20048;-70
2021/05/02 11:44:16;;;;;;;8.82;1.52;;;;;;;;;;5058679;28;20024;-70
2021/05/02 11:46:43;;;;;;;5.75;1.58;;;;;;;;;;5065275;28;20019;-70
2021/05/02 11:49:09;;;;;;;3.70;1.17;;;;;;;;;;5052888;28;20024;-69
2021/05/02 11:51:35;;;;;;;10.02;1.85;;;;;;;;;;5063458;28;20178;-71
2021/05/02 11:54:01;;;;;;;5.82;1.83;;;;;;;;;;5063493;28;20085;-70
2021/05/02 11:56:30;;;;;;;6.43;2.08;;;;;;;;;;5058265;28;20082;-70
2021/05/02 11:59:06;;;;;;;4.57;1.45;;;;;;;;;;5053190;28;20048;-71
2021/05/02 12:01:33;;;;;;;5.38;2.55;;;;;;;;;;5064291;28;20024;-69
2021/05/02 12:04:04;;;;;;;4.55;1.35;;;;;;;;;;5062503;28;20102;-70
2021/05/02 12:06:33;;;;;;;5.00;1.77;;;;;;;;;;5067255;28;20059;-71
2021/05/02 12:09:00;;;;;;;5.57;1.70;;;;;;;;;;5059632;28;20640;-71
2021/05/02 12:11:27;;;;;;;5.50;1.42;;;;;;;;;;5064231;28;20021;-69
2021/05/02 12:13:54;;;;;;;7.90;1.50;;;;;;;;;;5060418;28;20028;-68
2021/05/02 12:16:29;;;;;;;6.50;2.00;;;;;;;;;;5064741;28;20028;-72
2021/05/02 12:18:57;;;;;;;6.03;1.60;;;;;;;;;;5062033;28;20029;-71
2021/05/02 12:21:26;;;;;;;11.20;1.67;;;;;;;;;;5065276;28;20048;-70
2021/05/02 12:23:52;;;;;;;6.90;1.85;;;;;;;;;;5058119;28;20067;-71
2021/05/02 12:26:18;;;;;;;4.40;0.95;;;;;;;;;;5057516;28;20101;-70
2021/05/02 12:28:45;;;;;;;5.45;1.77;;;;;;;;;;5056302;28;20800;-71
2021/05/02 12:31:12;;;;;;;5.32;1.73;;;;;;;;;;5060579;28;20510;-70
2021/05/02 12:33:39;;;;;;;4.72;1.40;;;;;;;;;;5053733;28;20495;-69
2021/05/02 12:36:07;;;;;;;7.90;2.03;;;;;;;;;;5066037;28;20053;-70
2021/05/02 12:38:33;;;;;;;4.68;1.40;;;;;;;;;;5062499;28;20047;-69
2021/05/02 12:40:59;;;;;;;4.25;1.13;;;;;;;;;;5054690;28;20021;-70
2021/05/02 12:43:30;;;;;;;5.43;1.05;;;;;;;;;;5063292;28;20029;-69
2021/05/02 12:45:57;;;;;;;3.80;1.27;;;;;;;;;;5063069;28;20043;-70
2021/05/02 12:48:30;;;;;;;4.95;1.40;;;;;;;;;;5080270;28;20123;-70
2021/05/02 12:50:57;;;;;;;8.77;1.92;;;;;;;;;;5061896;28;20063;-70
2021/05/02 12:53:35;;;;;;;5.93;1.55;;;;;;;;;;5053973;28;20032;-70
2021/05/02 12:56:01;;;;;;;4.78;1.50;;;;;;;;;;5061716;28;20036;-71
2021/05/02 12:58:38;;;;;;;6.38;1.35;;;;;;;;;;5067751;28;20514;-71
2021/05/02 13:01:14;;;;;;;5.25;1.20;;;;;;;;;;5064058;28;20070;-70
2021/05/02 13:03:42;;;;;;;5.82;1.38;;;;;;;;;;5059647;28;20041;-70
2021/05/02 13:06:17;;;;;;;3.50;1.23;;;;;;;;;;5066519;28;20033;-71
2021/05/02 13:08:53;;;;;;;6.53;1.73;;;;;;;;;;5063948;28;20025;-70
2021/05/02 13:11:23;;;;;;;5.53;1.58;;;;;;;;;;5068259;28;20537;-70
2021/05/02 13:14:09;;;;;;;3.03;1.20;;;;;;;;;;5063587;28;20082;-71
2021/05/02 13:17:02;;;;;;;4.30;1.48;;;;;;;;;;5061676;28;20033;-72
2021/05/02 13:19:30;;;;;;;5.45;1.77;;;;;;;;;;5053873;28;20498;-70
2021/05/02 13:22:15;;;;;;;6.10;1.80;;;;;;;;;;5057652;28;20029;-71
2021/05/02 13:24:57;;;;;;;6.50;1.70;;;;;;;;;;5061485;28;20032;-71
2021/05/02 13:27:43;;;;;;;5.18;1.50;;;;;;;;;;5059784;28;20037;-71
2021/05/02 13:30:16;;;;;;;5.28;1.63;;;;;;;;;;5059340;28;20051;-70
2021/05/02 13:32:54;;;;;;;4.50;1.48;;;;;;;;;;5054307;28;20020;-69
2021/05/02 13:35:20;;;;;;;2.85;1.25;;;;;;;;;;5056865;28;20029;-71
2021/05/02 13:37:46;;;;;;;6.28;1.65;;;;;;;;;;5060226;28;20039;-72
2021/05/02 13:40:13;;;;;;;8.82;1.40;;;;;;;;;;5050090;28;20025;-71
2021/05/02 13:42:41;;;;;;;7.45;1.70;;;;;;;;;;5060602;28;20025;-72
2021/05/02 13:45:07;;;;;;;3.83;2.20;;;;;;;;;;5061038;28;20483;-70
2021/05/02 13:47:33;;;;;;;3.03;1.10;;;;;;;;;;5066165;28;20078;-69
2021/05/02 13:49:59;;;;;;;1.98;1.00;;;;;;;;;;5065384;28;20036;-71
2021/05/02 13:52:26;;;;;;;5.00;1.20;;;;;;;;;;5056170;28;20024;-70
2021/05/02 13:54:57;;;;;;;7.00;1.35;;;;;;;;;;5060033;28;20062;-70
2021/05/02 13:57:23;;;;;;;6.28;1.30;;;;;;;;;;5057782;28;20029;-71
2021/05/02 13:59:49;;;;;;;5.38;1.23;;;;;;;;;;5066384;28;20564;-70
2021/05/02 14:02:16;;;;;;;4.13;0.90;;;;;;;;;;5068332;28;20025;-70
2021/05/02 14:04:42;;;;;;;6.18;1.38;;;;;;;;;;5065531;28;20021;-71
2021/05/02 14:07:08;;;;;;;5.55;1.15;;;;;;;;;;5063124;28;20052;-70
2021/05/02 14:09:35;;;;;;;4.68;0.90;;;;;;;;;;5050175;28;20090;-70
2021/05/02 14:12:01;;;;;;;3.80;1.02;;;;;;;;;;5059780;28;20094;-69
2021/05/02 14:14:27;;;;;;;1.98;0.65;;;;;;;;;;5062179;28;20029;-71
2021/05/02 14:16:53;;;;;;;4.75;1.02;;;;;;;;;;5060276;28;20037;-71
2021/05/02 14:19:19;;;;;;;3.70;1.00;;;;;;;;;;5054519;28;20086;-71
2021/05/02 14:21:45;;;;;;;4.70;1.25;;;;;;;;;;5066267;28;20032;-71
2021/05/02 14:24:11;;;;;;;4.88;1.10;;;;;;;;;;5058548;28;20502;-70
2021/05/02 14:26:37;;;;;;;4.20;1.10;;;;;;;;;;5063041;28;20021;-70
2021/05/02 14:29:03;;;;;;;3.95;0.93;;;;;;;;;;5064606;28;20032;-70
2021/05/02 14:31:29;;;;;;;4.38;0.90;;;;;;;;;;5069940;28;20086;-72
2021/05/02 14:33:56;;;;;;;3.78;1.02;;;;;;;;;;5065297;28;20032;-71
2021/05/02 14:36:22;;;;;;;4.22;0.73;;;;;;;;;;5058144;28;20032;-70
2021/05/02 14:38:48;;;;;;;9.93;1.52;;;;;;;;;;5061278;28;20319;-71
2021/05/02 14:41:14;;;;;;;3.85;0.90;;;;;;;;;;5056482;28;20028;-71
2021/05/02 14:43:40;;;;;;;2.75;1.08;;;;;;;;;;5057586;28;20166;-70